createdAt,value
2018-06-29T00:00:45.479Z,0.00
2018-06-29T00:01:45.466Z,0.00
2018-06-29T00:02:45.454Z,0.00
2018-06-29T00:03:45.466Z,0.00
2018-06-29T00:04:45.431Z,0.00
2018-06-29T00:05:45.421Z,0.00
2018-06-29T00:06:45.408Z,0.00
2018-06-29T00:07:45.398Z,0.00
2018-06-29T00:08:45.413Z,0.00
2018-06-29T00:09:45.377Z,0.00
2018-06-29T00:10:45.365Z,0.00
2018-06-29T00:11:45.356Z,0.00
2018-06-29T00:12:45.342Z,0.00
2018-06-29T00:13:45.355Z,0.00
2018-06-29T00:14:45.320Z,0.00
2018-06-29T00:15:45.311Z,0.00
2018-06-29T00:16:45.298Z,0.00
2018-06-29T00:17:45.287Z,0.00
2018-06-29T00:18:45.299Z,0.00
2018-06-29T00:19:45.264Z,0.00
2018-06-29T00:20:45.255Z,0.00
2018-06-29T00:21:45.241Z,0.00
2018-06-29T00:22:45.233Z,0.00
2018-06-29T00:23:45.244Z,0.00
2018-06-29T00:24:45.208Z,0.00
2018-06-29T00:25:45.198Z,0.00
2018-06-29T00:26:45.186Z,0.00
2018-06-29T00:27:45.175Z,0.00
2018-06-29T00:28:45.187Z,0.00
2018-06-29T00:29:45.152Z,0.00
2018-06-29T00:30:45.139Z,0.00
2018-06-29T00:31:45.130Z,0.00
2018-06-29T00:32:45.120Z,0.00
2018-06-29T00:33:45.132Z,0.00
2018-06-29T00:34:45.097Z,0.00
2018-06-29T00:35:45.085Z,0.00
2018-06-29T00:36:45.073Z,0.00
2018-06-29T00:37:45.063Z,0.00
2018-06-29T00:38:45.079Z,0.00
2018-06-29T00:39:45.041Z,0.00
2018-06-29T00:40:45.030Z,0.00
2018-06-29T00:41:45.020Z,0.00
2018-06-29T00:42:45.008Z,0.00
2018-06-29T00:43:45.022Z,0.00
2018-06-29T00:44:44.984Z,0.00
2018-06-29T00:45:44.972Z,0.00
2018-06-29T00:46:44.962Z,0.00
2018-06-29T00:47:44.951Z,0.00
2018-06-29T00:48:44.963Z,0.00
2018-06-29T00:49:44.928Z,0.00
2018-06-29T00:50:44.918Z,0.00
2018-06-29T00:51:44.913Z,0.00
2018-06-29T00:52:44.894Z,0.00
2018-06-29T00:53:44.889Z,0.00
2018-06-29T00:54:44.896Z,0.00
2018-06-29T00:55:44.866Z,0.00
2018-06-29T00:56:44.851Z,0.00
2018-06-29T00:57:44.838Z,0.00
2018-06-29T00:58:44.829Z,0.00
2018-06-29T00:59:44.842Z,0.00
2018-06-29T01:00:44.806Z,0.00
2018-06-29T01:01:44.794Z,0.00
2018-06-29T01:02:44.784Z,0.00
2018-06-29T01:03:44.773Z,0.00
2018-06-29T01:04:44.785Z,0.00
2018-06-29T01:05:44.751Z,0.00
2018-06-29T01:06:44.738Z,0.00
2018-06-29T01:07:44.727Z,0.00
2018-06-29T01:08:44.718Z,0.00
2018-06-29T01:09:44.731Z,0.00
2018-06-29T01:10:44.701Z,0.00
2018-06-29T01:11:44.682Z,0.00
2018-06-29T01:12:44.674Z,0.00
2018-06-29T01:13:44.661Z,0.00
2018-06-29T01:14:44.677Z,0.00
2018-06-29T01:15:44.639Z,0.00
2018-06-29T01:16:44.626Z,0.00
2018-06-29T01:17:44.619Z,0.00
2018-06-29T01:18:44.604Z,0.00
2018-06-29T01:19:44.622Z,0.00
2018-06-29T01:20:44.583Z,0.00
2018-06-29T01:21:44.571Z,0.00
2018-06-29T01:22:44.561Z,0.00
2018-06-29T01:23:44.549Z,0.00
2018-06-29T01:24:44.562Z,0.00
2018-06-29T01:25:44.526Z,0.00
2018-06-29T01:26:44.517Z,0.00
2018-06-29T01:27:44.504Z,0.00
2018-06-29T01:28:44.534Z,0.00
2018-06-29T01:29:44.506Z,0.00
2018-06-29T01:30:44.470Z,0.00
2018-06-29T01:31:44.459Z,0.00
2018-06-29T01:32:44.450Z,0.00
2018-06-29T01:33:44.441Z,0.00
2018-06-29T01:34:44.450Z,0.00
2018-06-29T01:35:44.416Z,0.00
2018-06-29T01:36:44.403Z,0.00
2018-06-29T01:37:44.392Z,0.00
2018-06-29T01:38:44.381Z,0.00
2018-06-29T01:39:44.396Z,0.00
2018-06-29T01:40:44.359Z,0.00
2018-06-29T01:41:44.347Z,0.00
2018-06-29T01:42:44.336Z,0.00
2018-06-29T01:43:44.325Z,0.00
2018-06-29T01:44:44.339Z,0.00
2018-06-29T01:45:44.303Z,0.00
2018-06-29T01:46:44.292Z,0.00
2018-06-29T01:47:44.281Z,0.00
2018-06-29T01:48:44.269Z,0.00
2018-06-29T01:49:44.283Z,0.00
2018-06-29T01:50:44.247Z,0.00
2018-06-29T01:51:44.242Z,0.00
2018-06-29T01:52:44.294Z,0.00
2018-06-29T01:53:44.214Z,0.00
2018-06-29T01:54:44.230Z,0.00
2018-06-29T01:55:44.192Z,0.00
2018-06-29T01:56:44.187Z,0.00
2018-06-29T01:57:44.169Z,0.00
2018-06-29T01:58:44.162Z,0.00
2018-06-29T01:59:44.171Z,0.00
2018-06-29T02:00:44.137Z,0.00
2018-06-29T02:01:44.124Z,0.00
2018-06-29T02:02:44.114Z,0.00
2018-06-29T02:03:44.102Z,0.00
2018-06-29T02:04:44.118Z,0.00
2018-06-29T02:05:44.079Z,0.00
2018-06-29T02:06:44.069Z,0.00
2018-06-29T02:07:44.057Z,0.00
2018-06-29T02:08:44.047Z,0.00
2018-06-29T02:09:44.061Z,0.00
2018-06-29T02:10:44.024Z,0.00
2018-06-29T02:11:44.017Z,0.00
2018-06-29T02:12:44.003Z,0.00
2018-06-29T02:13:43.991Z,0.00
2018-06-29T02:14:44.005Z,0.00
2018-06-29T02:15:43.968Z,0.00
2018-06-29T02:16:43.956Z,0.00
2018-06-29T02:17:43.948Z,0.00
2018-06-29T02:18:43.935Z,0.00
2018-06-29T02:19:43.948Z,0.00
2018-06-29T02:20:43.914Z,0.00
2018-06-29T02:21:43.902Z,0.00
2018-06-29T02:22:43.890Z,0.00
2018-06-29T02:23:43.882Z,0.00
2018-06-29T02:24:43.894Z,0.00
2018-06-29T02:25:43.856Z,0.00
2018-06-29T02:26:43.845Z,0.00
2018-06-29T02:27:43.899Z,0.00
2018-06-29T02:28:43.826Z,0.00
2018-06-29T02:29:43.837Z,0.00
2018-06-29T02:30:43.906Z,0.00
2018-06-29T02:31:43.791Z,0.00
2018-06-29T02:32:43.780Z,0.00
2018-06-29T02:33:43.770Z,0.00
2018-06-29T02:34:43.781Z,0.00
2018-06-29T02:35:43.747Z,0.00
2018-06-29T02:36:43.734Z,0.00
2018-06-29T02:37:43.725Z,0.00
2018-06-29T02:38:43.718Z,0.00
2018-06-29T02:39:43.702Z,0.00
2018-06-29T02:40:43.723Z,0.00
2018-06-29T02:41:43.679Z,0.00
2018-06-29T02:42:43.667Z,0.00
2018-06-29T02:43:43.656Z,0.00
2018-06-29T02:44:43.647Z,0.00
2018-06-29T02:45:43.659Z,0.00
2018-06-29T02:46:43.623Z,0.00
2018-06-29T02:47:43.618Z,0.00
2018-06-29T02:48:43.601Z,0.00
2018-06-29T02:49:43.592Z,0.00
2018-06-29T02:50:43.602Z,0.00
2018-06-29T02:51:43.570Z,0.00
2018-06-29T02:52:43.556Z,0.00
2018-06-29T02:53:43.545Z,0.00
2018-06-29T02:54:43.535Z,0.00
2018-06-29T02:55:43.547Z,0.00
2018-06-29T02:56:43.517Z,0.00
2018-06-29T02:57:43.501Z,0.00
2018-06-29T02:58:43.488Z,0.00
2018-06-29T02:59:43.477Z,0.00
2018-06-29T03:00:43.491Z,0.00
2018-06-29T03:01:43.456Z,0.00
2018-06-29T03:02:43.444Z,0.00
2018-06-29T03:03:43.432Z,0.00
2018-06-29T03:04:43.448Z,0.00
2018-06-29T03:05:43.456Z,0.00
2018-06-29T03:06:43.401Z,0.00
2018-06-29T03:07:43.388Z,0.00
2018-06-29T03:08:43.376Z,0.00
2018-06-29T03:09:43.367Z,0.00
2018-06-29T03:10:43.380Z,0.00
2018-06-29T03:11:43.345Z,0.00
2018-06-29T03:12:43.333Z,0.00
2018-06-29T03:13:43.321Z,0.00
2018-06-29T03:14:43.312Z,0.00
2018-06-29T03:15:43.324Z,0.00
2018-06-29T03:16:43.291Z,0.00
2018-06-29T03:17:43.277Z,0.00
2018-06-29T03:18:43.264Z,0.00
2018-06-29T03:19:43.254Z,0.00
2018-06-29T03:20:43.267Z,0.00
2018-06-29T03:21:43.232Z,0.00
2018-06-29T03:22:43.221Z,0.00
2018-06-29T03:23:43.210Z,0.00
2018-06-29T03:24:43.198Z,0.00
2018-06-29T03:25:43.212Z,0.00
2018-06-29T03:26:43.176Z,0.00
2018-06-29T03:27:43.164Z,0.00
2018-06-29T03:28:43.153Z,0.00
2018-06-29T03:29:43.142Z,0.00
2018-06-29T03:30:43.156Z,0.00
2018-06-29T03:31:43.120Z,0.00
2018-06-29T03:32:43.111Z,0.00
2018-06-29T03:33:43.098Z,0.00
2018-06-29T03:34:43.093Z,0.00
2018-06-29T03:35:43.100Z,0.00
2018-06-29T03:36:43.065Z,0.00
2018-06-29T03:37:43.053Z,0.00
2018-06-29T03:38:43.041Z,0.00
2018-06-29T03:39:43.030Z,0.00
2018-06-29T03:40:43.114Z,0.00
2018-06-29T03:41:43.012Z,0.00
2018-06-29T03:42:42.997Z,0.00
2018-06-29T03:43:42.988Z,0.00
2018-06-29T03:44:42.975Z,0.00
2018-06-29T03:45:42.988Z,0.00
2018-06-29T03:46:42.952Z,0.00
2018-06-29T03:47:42.942Z,0.00
2018-06-29T03:48:42.931Z,0.00
2018-06-29T03:49:42.920Z,0.00
2018-06-29T03:50:42.934Z,0.00
2018-06-29T03:51:42.897Z,0.00
2018-06-29T03:52:42.886Z,0.00
2018-06-29T03:53:42.875Z,0.00
2018-06-29T03:54:42.864Z,0.00
2018-06-29T03:55:42.876Z,0.00
2018-06-29T03:56:42.842Z,0.00
2018-06-29T03:57:42.830Z,0.00
2018-06-29T03:58:42.826Z,0.00
2018-06-29T03:59:42.812Z,0.00
2018-06-29T04:00:42.822Z,0.00
2018-06-29T04:01:42.794Z,0.00
2018-06-29T04:02:42.800Z,0.00
2018-06-29T04:03:42.762Z,0.00
2018-06-29T04:04:42.751Z,0.00
2018-06-29T04:05:42.764Z,0.00
2018-06-29T04:06:42.730Z,0.00
2018-06-29T04:07:42.718Z,0.00
2018-06-29T04:08:42.707Z,0.00
2018-06-29T04:09:42.696Z,0.00
2018-06-29T04:10:42.709Z,0.00
2018-06-29T04:11:42.717Z,0.00
2018-06-29T04:12:42.665Z,0.00
2018-06-29T04:13:42.656Z,0.00
2018-06-29T04:14:42.640Z,0.00
2018-06-29T04:15:42.654Z,0.00
2018-06-29T04:16:42.618Z,5.62
2018-06-29T04:17:42.607Z,5.62
2018-06-29T04:18:42.596Z,5.62
2018-06-29T04:19:42.586Z,5.62
2018-06-29T04:20:42.598Z,5.62
2018-06-29T04:21:42.563Z,5.62
2018-06-29T04:22:42.553Z,5.62
2018-06-29T04:23:42.540Z,5.62
2018-06-29T04:24:42.530Z,5.62
2018-06-29T04:25:42.519Z,5.62
2018-06-29T04:26:42.531Z,5.62
2018-06-29T04:27:42.495Z,5.62
2018-06-29T04:28:42.483Z,5.62
2018-06-29T04:29:42.474Z,5.62
2018-06-29T04:30:42.463Z,5.62
2018-06-29T04:31:42.475Z,5.62
2018-06-29T04:32:42.460Z,5.62
2018-06-29T04:33:42.428Z,5.62
2018-06-29T04:34:42.417Z,5.62
2018-06-29T04:35:42.409Z,5.62
2018-06-29T04:36:42.419Z,5.62
2018-06-29T04:37:42.388Z,5.62
2018-06-29T04:38:42.372Z,5.62
2018-06-29T04:39:42.361Z,5.62
2018-06-29T04:40:42.353Z,5.62
2018-06-29T04:41:42.364Z,5.62
2018-06-29T04:42:42.337Z,5.62
2018-06-29T04:43:42.318Z,5.62
2018-06-29T04:44:42.306Z,5.62
2018-06-29T04:45:42.294Z,5.62
2018-06-29T04:46:42.307Z,5.62
2018-06-29T04:47:42.272Z,5.62
2018-06-29T04:48:42.260Z,5.62
2018-06-29T04:49:42.249Z,5.62
2018-06-29T04:50:42.243Z,5.62
2018-06-29T04:51:42.252Z,5.62
2018-06-29T04:52:42.216Z,5.62
2018-06-29T04:53:42.208Z,5.62
2018-06-29T04:54:42.195Z,5.62
2018-06-29T04:55:42.182Z,5.62
2018-06-29T04:56:42.197Z,5.62
2018-06-29T04:57:42.160Z,5.62
2018-06-29T04:58:42.150Z,5.62
2018-06-29T04:59:42.139Z,5.62
2018-06-29T05:00:42.128Z,5.62
2018-06-29T05:01:42.140Z,5.62
2018-06-29T05:02:42.105Z,5.62
2018-06-29T05:03:42.094Z,5.62
2018-06-29T05:04:42.083Z,5.62
2018-06-29T05:05:42.072Z,5.62
2018-06-29T05:06:42.085Z,5.62
2018-06-29T05:07:42.049Z,5.62
2018-06-29T05:08:42.039Z,5.62
2018-06-29T05:09:42.027Z,5.62
2018-06-29T05:10:42.016Z,5.62
2018-06-29T05:11:42.030Z,5.62
2018-06-29T05:12:41.994Z,5.62
2018-06-29T05:13:41.982Z,5.62
2018-06-29T05:14:41.972Z,5.62
2018-06-29T05:15:41.960Z,5.62
2018-06-29T05:16:41.974Z,5.62
2018-06-29T05:17:41.938Z,5.62
2018-06-29T05:18:41.930Z,5.62
2018-06-29T05:19:41.915Z,5.62
2018-06-29T05:20:41.905Z,5.62
2018-06-29T05:21:41.918Z,5.62
2018-06-29T05:22:41.882Z,5.62
2018-06-29T05:23:41.871Z,5.62
2018-06-29T05:24:41.859Z,5.62
2018-06-29T05:25:41.849Z,5.62
2018-06-29T05:26:41.861Z,5.62
2018-06-29T05:27:41.825Z,5.62
2018-06-29T05:28:41.905Z,5.62
2018-06-29T05:29:41.806Z,5.62
2018-06-29T05:30:41.793Z,5.62
2018-06-29T05:31:41.806Z,5.62
2018-06-29T05:32:41.770Z,5.62
2018-06-29T05:33:41.759Z,5.62
2018-06-29T05:34:41.748Z,5.62
2018-06-29T05:35:41.736Z,5.62
2018-06-29T05:36:41.750Z,5.62
2018-06-29T05:37:41.715Z,5.62
2018-06-29T05:38:41.704Z,5.62
2018-06-29T05:39:41.694Z,5.62
2018-06-29T05:40:41.681Z,5.62
2018-06-29T05:41:41.770Z,5.62
2018-06-29T05:42:41.703Z,5.62
2018-06-29T05:43:41.653Z,5.62
2018-06-29T05:44:41.637Z,5.62
2018-06-29T05:45:41.628Z,5.62
2018-06-29T05:46:41.639Z,5.62
2018-06-29T05:47:41.605Z,5.62
2018-06-29T05:48:41.593Z,5.62
2018-06-29T05:49:41.581Z,5.62
2018-06-29T05:50:41.569Z,5.62
2018-06-29T05:51:41.583Z,5.62
2018-06-29T05:52:41.551Z,5.62
2018-06-29T05:53:41.536Z,5.62
2018-06-29T05:54:41.525Z,5.62
2018-06-29T05:55:41.515Z,5.62
2018-06-29T05:56:41.527Z,5.62
2018-06-29T05:57:41.492Z,5.62
2018-06-29T05:58:41.481Z,5.62
2018-06-29T05:59:41.469Z,11.25
2018-06-29T06:00:41.458Z,11.25
2018-06-29T06:01:41.448Z,11.25
2018-06-29T06:02:41.460Z,11.25
2018-06-29T06:03:41.425Z,11.25
2018-06-29T06:04:41.481Z,11.25
2018-06-29T06:05:41.403Z,11.25
2018-06-29T06:06:41.393Z,11.25
2018-06-29T06:07:41.405Z,11.25
2018-06-29T06:08:41.371Z,11.25
2018-06-29T06:09:41.357Z,11.25
2018-06-29T06:10:41.346Z,11.25
2018-06-29T06:11:41.338Z,11.25
2018-06-29T06:12:41.349Z,11.25
2018-06-29T06:13:41.312Z,11.25
2018-06-29T06:14:41.303Z,11.25
2018-06-29T06:15:41.290Z,11.25
2018-06-29T06:16:41.281Z,11.25
2018-06-29T06:17:41.294Z,11.25
2018-06-29T06:18:41.257Z,11.25
2018-06-29T06:19:41.246Z,11.25
2018-06-29T06:20:41.234Z,0.00
2018-06-29T06:21:41.227Z,0.00
2018-06-29T06:22:41.237Z,0.00
2018-06-29T06:23:41.201Z,0.00
2018-06-29T06:24:41.194Z,0.00
2018-06-29T06:25:41.183Z,0.00
2018-06-29T06:26:41.168Z,0.00
2018-06-29T06:27:41.182Z,0.00
2018-06-29T06:28:41.147Z,0.00
2018-06-29T06:29:41.135Z,0.00
2018-06-29T06:30:41.124Z,0.00
2018-06-29T06:31:41.117Z,0.00
2018-06-29T06:32:41.126Z,0.00
2018-06-29T06:33:41.090Z,0.00
2018-06-29T06:34:41.079Z,0.00
2018-06-29T06:35:41.070Z,0.00
2018-06-29T06:36:41.058Z,0.00
2018-06-29T06:37:41.069Z,0.00
2018-06-29T06:38:41.035Z,0.00
2018-06-29T06:39:41.023Z,0.00
2018-06-29T06:40:41.012Z,0.00
2018-06-29T06:41:41.054Z,0.00
2018-06-29T06:42:41.029Z,5.62
2018-06-29T06:43:40.980Z,5.62
2018-06-29T06:44:40.969Z,5.62
2018-06-29T06:45:40.958Z,5.62
2018-06-29T06:46:40.946Z,5.62
2018-06-29T06:47:40.962Z,5.62
2018-06-29T06:48:40.933Z,5.62
2018-06-29T06:49:40.912Z,5.62
2018-06-29T06:50:40.902Z,5.62
2018-06-29T06:51:40.922Z,5.62
2018-06-29T06:52:40.904Z,5.62
2018-06-29T06:53:40.875Z,5.62
2018-06-29T06:54:40.857Z,5.62
2018-06-29T06:55:40.846Z,5.62
2018-06-29T06:56:40.834Z,5.62
2018-06-29T06:57:40.847Z,5.62
2018-06-29T06:58:40.812Z,5.62
2018-06-29T06:59:40.802Z,5.62
2018-06-29T07:00:40.789Z,5.62
2018-06-29T07:01:40.778Z,5.62
2018-06-29T07:02:40.790Z,5.62
2018-06-29T07:03:40.757Z,5.62
2018-06-29T07:04:40.744Z,5.62
2018-06-29T07:05:40.735Z,5.62
2018-06-29T07:06:40.723Z,5.62
2018-06-29T07:07:40.736Z,5.62
2018-06-29T07:08:40.700Z,5.62
2018-06-29T07:09:40.689Z,5.62
2018-06-29T07:10:40.678Z,5.62
2018-06-29T07:11:40.665Z,5.62
2018-06-29T07:12:40.683Z,5.62
2018-06-29T07:13:40.645Z,5.62
2018-06-29T07:14:40.632Z,5.62
2018-06-29T07:15:40.621Z,5.62
2018-06-29T07:16:40.609Z,5.62
2018-06-29T07:17:40.658Z,5.62
2018-06-29T07:18:40.591Z,5.62
2018-06-29T07:19:40.576Z,5.62
2018-06-29T07:20:40.564Z,5.62
2018-06-29T07:21:40.561Z,5.62
2018-06-29T07:22:40.567Z,5.62
2018-06-29T07:23:40.531Z,5.62
2018-06-29T07:24:40.519Z,5.62
2018-06-29T07:25:40.508Z,5.62
2018-06-29T07:26:40.498Z,5.62
2018-06-29T07:27:40.513Z,5.62
2018-06-29T07:28:40.474Z,5.62
2018-06-29T07:29:40.464Z,5.62
2018-06-29T07:30:40.453Z,5.62
2018-06-29T07:31:40.441Z,5.62
2018-06-29T07:32:40.452Z,5.62
2018-06-29T07:33:40.416Z,5.62
2018-06-29T07:34:40.406Z,5.62
2018-06-29T07:35:40.395Z,5.62
2018-06-29T07:36:40.385Z,5.62
2018-06-29T07:37:40.396Z,5.62
2018-06-29T07:38:40.401Z,5.62
2018-06-29T07:39:40.350Z,5.62
2018-06-29T07:40:40.338Z,5.62
2018-06-29T07:41:40.329Z,5.62
2018-06-29T07:42:40.317Z,5.62
2018-06-29T07:43:40.331Z,5.62
2018-06-29T07:44:40.295Z,5.62
2018-06-29T07:45:40.285Z,5.62
2018-06-29T07:46:40.331Z,5.62
2018-06-29T07:47:40.263Z,5.62
2018-06-29T07:48:40.271Z,5.62
2018-06-29T07:49:40.238Z,5.62
2018-06-29T07:50:40.241Z,5.62
2018-06-29T07:51:40.214Z,5.62
2018-06-29T07:52:40.220Z,5.62
2018-06-29T07:53:40.216Z,5.62
2018-06-29T07:54:40.180Z,5.62
2018-06-29T07:55:40.168Z,5.62
2018-06-29T07:56:40.158Z,5.62
2018-06-29T07:57:40.151Z,5.62
2018-06-29T07:58:40.344Z,5.62
2018-06-29T07:59:40.125Z,5.62
2018-06-29T08:00:40.112Z,5.62
2018-06-29T08:01:40.102Z,5.62
2018-06-29T08:02:40.100Z,5.62
2018-06-29T08:03:40.103Z,5.62
2018-06-29T08:04:40.068Z,5.62
2018-06-29T08:05:40.055Z,5.62
2018-06-29T08:06:40.045Z,5.62
2018-06-29T08:07:40.035Z,5.62
2018-06-29T08:08:40.051Z,5.62
2018-06-29T08:09:40.011Z,5.62
2018-06-29T08:10:40.080Z,5.62
2018-06-29T08:11:39.989Z,5.62
2018-06-29T08:12:39.982Z,5.62
2018-06-29T08:13:39.990Z,5.62
2018-06-29T08:14:39.955Z,5.62
2018-06-29T08:15:39.944Z,5.62
2018-06-29T08:16:39.933Z,5.62
2018-06-29T08:17:39.922Z,5.62
2018-06-29T08:18:39.934Z,5.62
2018-06-29T08:19:39.899Z,5.62
2018-06-29T08:20:39.890Z,5.62
2018-06-29T08:21:39.877Z,5.62
2018-06-29T08:22:39.866Z,5.62
2018-06-29T08:23:39.877Z,5.62
2018-06-29T08:24:39.842Z,5.62
2018-06-29T08:25:39.832Z,5.62
2018-06-29T08:26:39.821Z,5.62
2018-06-29T08:27:39.809Z,5.62
2018-06-29T08:28:39.821Z,5.62
2018-06-29T08:29:39.786Z,5.62
2018-06-29T08:30:39.776Z,5.62
2018-06-29T08:31:39.765Z,5.62
2018-06-29T08:32:39.754Z,5.62
2018-06-29T08:33:39.767Z,5.62
2018-06-29T08:34:39.734Z,5.62
2018-06-29T08:35:39.721Z,5.62
2018-06-29T08:36:39.708Z,5.62
2018-06-29T08:37:39.699Z,5.62
2018-06-29T08:38:39.734Z,5.62
2018-06-29T08:39:39.675Z,5.62
2018-06-29T08:40:39.677Z,5.62
2018-06-29T08:41:39.652Z,5.62
2018-06-29T08:42:39.641Z,5.62
2018-06-29T08:43:39.671Z,5.62
2018-06-29T08:44:39.620Z,5.62
2018-06-29T08:45:39.609Z,5.62
2018-06-29T08:46:39.609Z,5.62
2018-06-29T08:47:39.586Z,5.62
2018-06-29T08:48:39.599Z,5.62
2018-06-29T08:49:39.635Z,5.62
2018-06-29T08:50:39.554Z,5.62
2018-06-29T08:51:39.543Z,5.62
2018-06-29T08:52:39.530Z,5.62
2018-06-29T08:53:39.544Z,5.62
2018-06-29T08:54:39.509Z,5.62
2018-06-29T08:55:39.496Z,5.62
2018-06-29T08:56:39.485Z,5.62
2018-06-29T08:57:39.475Z,5.62
2018-06-29T08:58:39.490Z,5.62
2018-06-29T08:59:39.460Z,5.62
2018-06-29T09:00:39.443Z,5.62
2018-06-29T09:01:39.430Z,5.62
2018-06-29T09:02:39.423Z,5.62
2018-06-29T09:03:39.431Z,5.62
2018-06-29T09:04:39.397Z,5.62
2018-06-29T09:05:39.389Z,5.62
2018-06-29T09:06:39.376Z,5.62
2018-06-29T09:07:39.365Z,5.62
2018-06-29T09:08:39.375Z,5.62
2018-06-29T09:09:39.341Z,5.62
2018-06-29T09:10:39.329Z,5.62
2018-06-29T09:11:39.317Z,5.62
2018-06-29T09:12:39.308Z,16.88
2018-06-29T09:13:39.319Z,16.88
2018-06-29T09:14:39.287Z,16.88
2018-06-29T09:15:39.276Z,16.88
2018-06-29T09:16:39.263Z,16.88
2018-06-29T09:17:39.251Z,16.88
2018-06-29T09:18:39.264Z,16.88
2018-06-29T09:19:39.230Z,16.88
2018-06-29T09:20:39.218Z,16.88
2018-06-29T09:21:39.206Z,16.88
2018-06-29T09:22:39.196Z,16.88
2018-06-29T09:23:39.190Z,16.88
2018-06-29T09:24:39.198Z,16.88
2018-06-29T09:25:39.163Z,16.88
2018-06-29T09:26:39.150Z,16.88
2018-06-29T09:27:39.144Z,16.88
2018-06-29T09:28:39.169Z,16.88
2018-06-29T09:29:39.119Z,16.88
2018-06-29T09:30:39.107Z,16.88
2018-06-29T09:31:39.097Z,16.88
2018-06-29T09:32:39.086Z,16.88
2018-06-29T09:33:39.075Z,16.88
2018-06-29T09:34:39.085Z,16.88
2018-06-29T09:35:39.051Z,16.88
2018-06-29T09:36:39.041Z,16.88
2018-06-29T09:37:39.029Z,16.88
2018-06-29T09:38:39.018Z,16.88
2018-06-29T09:39:39.030Z,16.88
2018-06-29T09:40:38.996Z,16.88
2018-06-29T09:41:38.984Z,16.88
2018-06-29T09:42:39.005Z,16.88
2018-06-29T09:43:38.965Z,16.88
2018-06-29T09:44:38.973Z,16.88
2018-06-29T09:45:38.939Z,16.88
2018-06-29T09:46:38.928Z,16.88
2018-06-29T09:47:38.917Z,16.88
2018-06-29T09:48:38.920Z,11.25
2018-06-29T09:49:38.919Z,11.25
2018-06-29T09:50:38.883Z,11.25
2018-06-29T09:51:38.873Z,11.25
2018-06-29T09:52:38.861Z,11.25
2018-06-29T09:53:38.849Z,11.25
2018-06-29T09:54:38.862Z,11.25
2018-06-29T09:55:38.828Z,11.25
2018-06-29T09:56:38.818Z,11.25
2018-06-29T09:57:38.804Z,11.25
2018-06-29T09:58:38.793Z,11.25
2018-06-29T09:59:38.805Z,11.25
2018-06-29T10:00:38.864Z,11.25
2018-06-29T10:01:38.760Z,11.25
2018-06-29T10:02:39.272Z,11.25
2018-06-29T10:03:38.737Z,11.25
2018-06-29T10:04:38.752Z,11.25
2018-06-29T10:05:38.715Z,11.25
2018-06-29T10:06:38.705Z,11.25
2018-06-29T10:07:38.693Z,11.25
2018-06-29T10:08:38.684Z,11.25
2018-06-29T10:09:38.696Z,11.25
2018-06-29T10:10:38.659Z,11.25
2018-06-29T10:11:38.647Z,11.25
2018-06-29T10:12:38.641Z,11.25
2018-06-29T10:13:38.625Z,11.25
2018-06-29T10:14:38.639Z,11.25
2018-06-29T10:15:38.604Z,11.25
2018-06-29T10:16:38.594Z,11.25
2018-06-29T10:17:38.581Z,11.25
2018-06-29T10:18:38.570Z,11.25
2018-06-29T10:19:38.727Z,11.25
2018-06-29T10:20:38.550Z,11.25
2018-06-29T10:21:38.536Z,11.25
2018-06-29T10:22:38.525Z,16.88
2018-06-29T10:23:38.513Z,11.25
2018-06-29T10:24:38.528Z,11.25
2018-06-29T10:25:38.492Z,11.25
2018-06-29T10:26:38.489Z,11.25
2018-06-29T10:27:38.469Z,11.25
2018-06-29T10:28:38.457Z,16.88
2018-06-29T10:29:38.470Z,16.88
2018-06-29T10:30:38.435Z,16.88
2018-06-29T10:31:38.428Z,16.88
2018-06-29T10:32:38.413Z,16.88
2018-06-29T10:33:38.401Z,16.88
2018-06-29T10:34:38.415Z,16.88
2018-06-29T10:35:38.380Z,16.88
2018-06-29T10:36:38.374Z,16.88
2018-06-29T10:37:38.362Z,16.88
2018-06-29T10:38:38.345Z,16.88
2018-06-29T10:39:38.359Z,16.88
2018-06-29T10:40:38.324Z,16.88
2018-06-29T10:41:38.315Z,16.88
2018-06-29T10:42:38.301Z,16.88
2018-06-29T10:43:38.315Z,16.88
2018-06-29T10:44:38.313Z,16.88
2018-06-29T10:45:38.266Z,16.88
2018-06-29T10:46:38.256Z,16.88
2018-06-29T10:47:38.245Z,16.88
2018-06-29T10:48:38.233Z,16.88
2018-06-29T10:49:38.246Z,16.88
2018-06-29T10:50:38.211Z,16.88
2018-06-29T10:51:38.201Z,16.88
2018-06-29T10:52:38.188Z,16.88
2018-06-29T10:53:38.178Z,16.88
2018-06-29T10:54:38.189Z,16.88
2018-06-29T10:55:38.156Z,16.88
2018-06-29T10:56:38.146Z,16.88
2018-06-29T10:57:38.135Z,16.88
2018-06-29T10:58:38.144Z,16.88
2018-06-29T10:59:38.135Z,16.88
2018-06-29T11:00:38.100Z,16.88
2018-06-29T11:01:38.089Z,16.88
2018-06-29T11:02:38.077Z,16.88
2018-06-29T11:03:38.066Z,16.88
2018-06-29T11:04:38.078Z,16.88
2018-06-29T11:05:38.133Z,16.88
2018-06-29T11:06:38.037Z,16.88
2018-06-29T11:07:38.021Z,16.88
2018-06-29T11:08:38.011Z,16.88
2018-06-29T11:09:38.000Z,16.88
2018-06-29T11:10:38.012Z,16.88
2018-06-29T11:11:37.980Z,16.88
2018-06-29T11:12:37.965Z,16.88
2018-06-29T11:13:37.953Z,22.50
2018-06-29T11:14:37.944Z,22.50
2018-06-29T11:15:37.954Z,22.50
2018-06-29T11:16:37.920Z,22.50
2018-06-29T11:17:37.909Z,22.50
2018-06-29T11:18:37.898Z,22.50
2018-06-29T11:19:37.887Z,22.50
2018-06-29T11:20:37.898Z,22.50
2018-06-29T11:21:37.865Z,22.50
2018-06-29T11:22:37.903Z,22.50
2018-06-29T11:23:37.841Z,22.50
2018-06-29T11:24:37.831Z,22.50
2018-06-29T11:25:37.844Z,22.50
2018-06-29T11:26:37.808Z,22.50
2018-06-29T11:27:37.797Z,22.50
2018-06-29T11:28:37.785Z,22.50
2018-06-29T11:29:37.779Z,22.50
2018-06-29T11:30:37.788Z,22.50
2018-06-29T11:31:37.752Z,22.50
2018-06-29T11:32:37.740Z,22.50
2018-06-29T11:33:37.730Z,22.50
2018-06-29T11:34:37.718Z,22.50
2018-06-29T11:35:37.740Z,483.75
2018-06-29T11:36:37.706Z,489.38
2018-06-29T11:37:37.696Z,495.00
2018-06-29T11:38:37.675Z,506.25
2018-06-29T11:39:37.663Z,517.50
2018-06-29T11:40:37.684Z,528.75
2018-06-29T11:41:37.641Z,1541.25
2018-06-29T11:42:37.668Z,3740.62
2018-06-29T11:43:37.619Z,4629.38
2018-06-29T11:44:37.610Z,4365.00
2018-06-29T11:45:37.635Z,4291.88
2018-06-29T11:46:37.585Z,4348.12
2018-06-29T11:47:37.574Z,4657.50
2018-06-29T11:48:37.572Z,4533.75
2018-06-29T11:49:37.553Z,4387.50
2018-06-29T11:50:37.567Z,4691.25
2018-06-29T11:51:37.531Z,4365.00
2018-06-29T11:52:37.523Z,3774.38
2018-06-29T11:53:37.510Z,4235.62
2018-06-29T11:54:37.500Z,4455.00
2018-06-29T11:55:37.521Z,4713.75
2018-06-29T11:56:37.480Z,4381.88
2018-06-29T11:57:37.470Z,4117.50
2018-06-29T11:58:37.461Z,4635.00
2018-06-29T11:59:37.454Z,4972.50
2018-06-29T12:00:37.527Z,5141.25
2018-06-29T12:01:37.429Z,5006.25
2018-06-29T12:02:37.422Z,4618.12
2018-06-29T12:03:37.412Z,4646.25
2018-06-29T12:04:37.400Z,4449.38
2018-06-29T12:05:37.417Z,4061.25
2018-06-29T12:06:37.383Z,4145.62
2018-06-29T12:07:37.372Z,4657.50
2018-06-29T12:08:37.363Z,5028.75
2018-06-29T12:09:37.370Z,4882.50
2018-06-29T12:10:37.369Z,4595.62
2018-06-29T12:11:37.351Z,4545.00
2018-06-29T12:12:37.327Z,5315.62
2018-06-29T12:13:37.320Z,5866.88
2018-06-29T12:14:37.372Z,5450.62
2018-06-29T12:15:37.329Z,5062.50
2018-06-29T12:16:37.291Z,4966.88
2018-06-29T12:17:37.301Z,5310.00
2018-06-29T12:18:37.274Z,5231.25
2018-06-29T12:19:37.267Z,5101.88
2018-06-29T12:20:37.337Z,5130.00
2018-06-29T12:21:37.293Z,5388.75
2018-06-29T12:22:37.247Z,5720.62
2018-06-29T12:23:37.235Z,5619.38
2018-06-29T12:24:37.229Z,5439.38
2018-06-29T12:25:37.341Z,5439.38
2018-06-29T12:26:37.211Z,5821.88
2018-06-29T12:27:37.225Z,5861.25
2018-06-29T12:28:37.193Z,5748.75
2018-06-29T12:29:37.208Z,6142.50
2018-06-29T12:30:37.199Z,6384.38
2018-06-29T12:31:37.165Z,6300.00
2018-06-29T12:32:37.210Z,6131.25
2018-06-29T12:33:37.154Z,6204.38
2018-06-29T12:34:37.143Z,6243.75
2018-06-29T12:35:37.159Z,6316.88
2018-06-29T12:36:37.128Z,6525.00
2018-06-29T12:37:37.168Z,6429.38
2018-06-29T12:38:37.112Z,6125.62
2018-06-29T12:39:37.109Z,5754.38
2018-06-29T12:40:37.121Z,5580.00
2018-06-29T12:41:37.089Z,5731.88
2018-06-29T12:42:37.083Z,6120.00
2018-06-29T12:43:37.206Z,6232.50
2018-06-29T12:44:37.067Z,6311.25
2018-06-29T12:45:37.088Z,6733.12
2018-06-29T12:46:37.054Z,6541.88
2018-06-29T12:47:37.044Z,6097.50
2018-06-29T12:48:37.036Z,6108.75
2018-06-29T12:49:37.114Z,6339.38
2018-06-29T12:50:37.024Z,6294.38
2018-06-29T12:51:37.107Z,6030.00
2018-06-29T12:52:37.005Z,5591.25
2018-06-29T12:53:36.999Z,4876.88
2018-06-29T12:54:36.991Z,4674.38
2018-06-29T12:55:37.048Z,5101.88
2018-06-29T12:56:37.000Z,5580.00
2018-06-29T12:57:36.970Z,5748.75
2018-06-29T12:58:37.054Z,5838.75
2018-06-29T12:59:36.955Z,5731.88
2018-06-29T13:00:36.951Z,5641.88
2018-06-29T13:01:37.075Z,6013.12
2018-06-29T13:02:36.931Z,6030.00
2018-06-29T13:03:36.924Z,5574.38
2018-06-29T13:04:36.917Z,5400.00